Queen Of Burnaby — VCVV — position and weather

sailwx.info

Track history (hours):
 
Tides and Currents Weather Stations Pressure Air Temp Water Temp Dewpoint Dewpoint Depression Visibility Wind Speed Wind Dir Waves Ship Positions

Queen Of Burnaby

Last reported at 2017-Apr-27 18:30 UTC. Time now 2017-Apr-27 18:54 UTC.
Position N 49°50' W 124°32'.

Length 130 m.

MMSI: 316001246.

Date/timePositionNaut miles runAvg speedWind from/ knotsBaromVisibWave heightAir tempDewpointWater temp
2017-Apr-27 18:30N 49°50' W 124°32'3 5.8
2017-Apr-27 18:00N 49°49' W 124°36'714.8
2017-Apr-27 17:30N 49°47' W 124°47'611.8
2017-Apr-27 17:00N 49°44' W 124°55'0 0.1
2017-Apr-27 16:30N 49°44' W 124°55'612.3
2017-Apr-27 16:00N 49°47' W 124°47'714.9
2017-Apr-27 15:31N 49°49' W 124°36'3 5.6
2017-Apr-27 15:00N 49°50' W 124°32'9 8.7
2017-Apr-27 14:00N 49°47' W 124°45'713.8
2017-Apr-27 13:29N 49°45' W 124°55'0 0.6
2017-Apr-27 13:00N 49°44' W 124°55'0 0.0
2017-Apr-27 12:21N 49°44' W 124°55'0 0.0
2017-Apr-27 10:48N 49°44' W 124°55'0 0.0
2017-Apr-27 10:24N 49°44' W 124°55'0 0.0
2017-Apr-27 09:18N 49°44' W 124°55'0 0.0
2017-Apr-27 08:00N 49°44' W 124°55'0 0.0
2017-Apr-27 07:30N 49°44' W 124°55'0 0.0
2017-Apr-27 06:54N 49°44' W 124°55'0 0.0
2017-Apr-27 06:12N 49°44' W 124°55'0 0.0
2017-Apr-27 06:00N 49°44' W 124°55'0 0.0
2017-Apr-27 05:12N 49°44' W 124°55'0 0.0
2017-Apr-27 05:00N 49°44' W 124°55'612.3
2017-Apr-27 04:30N 49°46' W 124°46'714.1
2017-Apr-27 04:00N 49°49' W 124°36'3 6.1
2017-Apr-27 03:30N 49°50' W 124°32'3 6.3
2017-Apr-27 03:00N 49°49' W 124°37'612.6
2017-Apr-27 02:30N 49°47' W 124°46'612.5
2017-Apr-27 02:00N 49°45' W 124°55'1 0.6
2017-Apr-27 01:13N 49°44' W 124°55'0 0.0
2017-Apr-27 00:58N 49°44' W 124°55'0 0.0
2017-Apr-26 23:46N 49°44' W 124°55'0 0.0
2017-Apr-26 23:28N 49°44' W 124°55'0 0.0
2017-Apr-26 22:22N 49°44' W 124°55'0 0.0
2017-Apr-26 21:58N 49°44' W 124°55'0 0.0
2017-Apr-26 20:14N 49°44' W 124°55'1 5.8
2017-Apr-26 20:00N 49°45' W 124°54'612.8
2017-Apr-26 19:30N 49°47' W 124°44'612.9
2017-Apr-26 19:00N 49°49' W 124°35'2 4.2
2017-Apr-26 18:30N 49°50' W 124°32'3 6.6
2017-Apr-26 18:00N 49°49' W 124°37'814.7
2017-Apr-26 17:27N 49°46' W 124°48'510.3
2017-Apr-26 16:59N 49°44' W 124°55'0 0.1
2017-Apr-26 16:30N 49°44' W 124°55'510.7
2017-Apr-26 16:00N 49°46' W 124°48'612.3
2017-Apr-26 15:30N 49°49' W 124°39'5 9.5
2017-Apr-26 15:00N 49°50' W 124°32'2 4.5
2017-Apr-26 14:30N 49°50' W 124°35'1312.9
2017-Apr-26 13:30N 49°45' W 124°54'1 0.6
2017-Apr-26 11:29N 49°44' W 124°55'0 0.0
2017-Apr-26 10:59N 49°44' W 124°55'0 0.0
2017-Apr-26 10:11N 49°44' W 124°55'0 0.0
2017-Apr-26 09:53N 49°44' W 124°55'0 0.0
2017-Apr-26 09:29N 49°44' W 124°55'0 0.0
2017-Apr-26 08:59N 49°44' W 124°55'0 0.0
2017-Apr-26 08:29N 49°44' W 124°55'0 0.0
2017-Apr-26 07:53N 49°44' W 124°55'0 0.0
2017-Apr-26 07:29N 49°44' W 124°55'0 0.0
2017-Apr-26 06:59N 49°44' W 124°55'0 0.0
2017-Apr-26 06:29N 49°44' W 124°55'0 0.0
2017-Apr-26 05:59N 49°44' W 124°55'0 0.0
2017-Apr-26 05:29N 49°44' W 124°55'0 0.0
2017-Apr-26 04:59N 49°44' W 124°55'611.9
2017-Apr-26 04:30N 49°47' W 124°47'714.7
2017-Apr-26 04:00N 49°49' W 124°37'3 6.5
2017-Apr-26 03:31N 49°50' W 124°32'611.6
2017-Apr-26 03:01N 49°48' W 124°40'815.0
2017-Apr-26 02:30N 49°45' W 124°51'3 5.8
2017-Apr-26 02:00N 49°44' W 124°55'0 0.1
2017-Apr-26 01:30N 49°44' W 124°55'611.9
2017-Apr-26 01:00N 49°47' W 124°47'713.8
2017-Apr-26 00:30N 49°49' W 124°37'3 6.7
2017-Apr-26 00:00N 49°50' W 124°32'2 4.0
2017-Apr-25 23:31N 49°50' W 124°35'612.2
2017-Apr-25 23:00N 49°47' W 124°43'612.5
2017-Apr-25 22:29N 49°45' W 124°53'2 3.6
2017-Apr-25 21:57N 49°44' W 124°55'0 0.0
2017-Apr-25 21:30N 49°44' W 124°55'0 0.0
2017-Apr-25 21:00N 49°44' W 124°55'0 0.0
2017-Apr-25 20:30N 49°44' W 124°55'3 5.2
2017-Apr-25 20:00N 49°45' W 124°52'612.2
2017-Apr-25 19:30N 49°48' W 124°43'612.3
2017-Apr-25 19:00N 49°50' W 124°34'1 2.8
2017-Apr-25 18:30N 49°50' W 124°32'4 8.6
2017-Apr-25 18:00N 49°49' W 124°38'713.3
2017-Apr-25 17:29N 49°47' W 124°48'510.4
2017-Apr-25 17:00N 49°44' W 124°55'0 0.1
2017-Apr-25 16:30N 49°44' W 124°55'611.0
2017-Apr-25 16:00N 49°47' W 124°48'713.7
2017-Apr-25 15:30N 49°49' W 124°38'4 7.8
2017-Apr-25 15:00N 49°50' W 124°32'3 5.2
2017-Apr-25 14:30N 49°50' W 124°36'1312.5
2017-Apr-25 13:30N 49°45' W 124°54'1 0.3
2017-Apr-25 09:16N 49°44' W 124°55'0 0.0
2017-Apr-25 08:46N 49°44' W 124°55'0 0.0
2017-Apr-25 05:40N 49°44' W 124°55'0 0.0
2017-Apr-25 05:28N 49°44' W 124°55'0 0.1
2017-Apr-25 04:53N 49°44' W 124°55'513.3
2017-Apr-25 04:31N 49°46' W 124°48'714.9
2017-Apr-25 04:01N 49°49' W 124°37'4 7.3
2017-Apr-25 03:30N 49°50' W 124°32'611.2
2017-Apr-25 03:00N 49°48' W 124°40'814.8
2017-Apr-25 02:29N 49°46' W 124°51'3 6.1
2017-Apr-25 02:00N 49°44' W 124°55'0 0.0
2017-Apr-25 01:30N 49°44' W 124°55'611.3
2017-Apr-25 01:00N 49°46' W 124°47'714.0
2017-Apr-25 00:30N 49°49' W 124°37'4 7.4
2017-Apr-25 00:00N 49°50' W 124°32'2 3.4
2017-Apr-24 23:30N 49°50' W 124°35'713.0
2017-Apr-24 22:59N 49°47' W 124°44'613.2
2017-Apr-24 22:30N 49°45' W 124°53'1 2.1
2017-Apr-24 21:49N 49°44' W 124°55'0 0.0
2017-Apr-24 20:13N 49°44' W 124°55'2 8.5
2017-Apr-24 20:00N 49°45' W 124°53'612.4
2017-Apr-24 19:30N 49°47' W 124°44'612.4
2017-Apr-24 19:00N 49°49' W 124°35'2 4.1
2017-Apr-24 18:30N 49°50' W 124°32'4 7.5
2017-Apr-24 18:00N 49°49' W 124°37'714.2
2017-Apr-24 17:30N 49°46' W 124°48'510.8
2017-Apr-24 17:01N 49°44' W 124°55'0 0.0
2017-Apr-24 16:29N 49°44' W 124°55'511.2
2017-Apr-24 16:00N 49°46' W 124°48'713.7
2017-Apr-24 15:30N 49°49' W 124°38'4 8.3
2017-Apr-24 15:00N 49°50' W 124°32'1 2.5
2017-Apr-24 14:30N 49°50' W 124°34'1413.8
2017-Apr-24 13:30N 49°45' W 124°54'1 2.5
2017-Apr-24 12:58N 49°44' W 124°55'0 0.0
2017-Apr-24 12:22N 49°44' W 124°55'0 0.0
2017-Apr-24 10:25N 49°44' W 124°55'0 0.0
2017-Apr-24 09:49N 49°44' W 124°55'0 0.0
2017-Apr-24 09:19N 49°44' W 124°55'0 0.0
2017-Apr-24 08:58N 49°44' W 124°55'0 0.0
2017-Apr-24 07:10N 49°44' W 124°55'0 0.0
2017-Apr-24 06:55N 49°44' W 124°55'0 0.0
2017-Apr-24 05:19N 49°44' W 124°55'0 0.0
2017-Apr-24 04:57N 49°44' W 124°55'613.3
2017-Apr-24 04:30N 49°47' W 124°47'714.7
2017-Apr-24 04:00N 49°49' W 124°36'3 5.8
2017-Apr-24 03:30N 49°50' W 124°32'612.8
2017-Apr-24 03:00N 49°48' W 124°41'815.0
2017-Apr-24 02:30N 49°45' W 124°52'2 4.7
2017-Apr-24 02:00N 49°44' W 124°55'0 0.0
2017-Apr-24 01:30N 49°44' W 124°55'612.1
2017-Apr-24 01:01N 49°47' W 124°47'714.0
2017-Apr-24 00:30N 49°49' W 124°36'3 6.3
2017-Apr-24 00:00N 49°50' W 124°32'2 4.1
2017-Apr-23 23:31N 49°50' W 124°35'611.8
2017-Apr-23 23:00N 49°48' W 124°43'611.9
2017-Apr-23 22:30N 49°45' W 124°52'2 4.6
2017-Apr-23 21:58N 49°44' W 124°55'0 0.0
2017-Apr-23 21:28N 49°44' W 124°55'0 0.0
2017-Apr-23 20:52N 49°44' W 124°55'0 0.0
2017-Apr-23 20:22N 49°44' W 124°55'1 3.2
2017-Apr-23 20:00N 49°45' W 124°54'713.5
2017-Apr-23 19:31N 49°47' W 124°44'612.5
2017-Apr-23 19:00N 49°49' W 124°35'2 4.2
2017-Apr-23 18:30N 49°50' W 124°32'4 7.9
2017-Apr-23 18:00N 49°49' W 124°38'713.1
2017-Apr-23 17:30N 49°46' W 124°47'611.2
2017-Apr-23 17:00N 49°44' W 124°55'0 0.2
2017-Apr-23 16:30N 49°44' W 124°55'510.4
2017-Apr-23 16:00N 49°47' W 124°48'612.6
2017-Apr-23 15:30N 49°48' W 124°39'5 9.6
2017-Apr-23 15:00N 49°50' W 124°32'9 8.6
2017-Apr-23 14:00N 49°47' W 124°45'612.3
2017-Apr-23 13:30N 49°45' W 124°53'1 2.3
2017-Apr-23 12:54N 49°44' W 124°55'0 0.0
2017-Apr-23 12:30N 49°44' W 124°55'0 0.0
2017-Apr-23 11:57N 49°44' W 124°55'0 0.0
2017-Apr-23 11:30N 49°44' W 124°55'0 0.0
2017-Apr-23 11:00N 49°44' W 124°55'0 0.0
2017-Apr-23 10:30N 49°44' W 124°55'0 0.0
2017-Apr-23 09:48N 49°44' W 124°55'0 0.0
2017-Apr-23 09:30N 49°44' W 124°55'0 0.0
2017-Apr-23 09:00N 49°44' W 124°55'0 0.0
2017-Apr-23 08:30N 49°44' W 124°55'0 0.0
2017-Apr-23 08:00N 49°44' W 124°55'0 0.0
2017-Apr-23 07:30N 49°44' W 124°55'0 0.0
2017-Apr-23 06:54N 49°44' W 124°55'0 0.0
2017-Apr-23 05:48N 49°44' W 124°55'0 0.0
2017-Apr-23 05:09N 49°44' W 124°55'0 0.0
2017-Apr-23 04:55N 49°44' W 124°55'511.4
2017-Apr-23 04:30N 49°46' W 124°49'815.3
2017-Apr-23 04:00N 49°49' W 124°38'4 8.0
2017-Apr-23 03:30N 49°50' W 124°32'3 6.6
2017-Apr-23 03:00N 49°49' W 124°37'611.8
2017-Apr-23 02:31N 49°46' W 124°45'612.5
2017-Apr-23 02:00N 49°45' W 124°54'1 1.0
2017-Apr-23 01:10N 49°44' W 124°55'0 0.0
2017-Apr-23 00:58N 49°44' W 124°55'0 0.0
2017-Apr-23 00:28N 49°44' W 124°55'0 0.0
2017-Apr-22 23:58N 49°44' W 124°55'0 0.0
2017-Apr-22 23:28N 49°44' W 124°55'0 0.0
2017-Apr-22 22:58N 49°44' W 124°55'0 0.0
2017-Apr-22 22:28N 49°44' W 124°55'0 0.0
2017-Apr-22 21:58N 49°44' W 124°55'0 0.0
2017-Apr-22 21:28N 49°44' W 124°55'0 0.0
2017-Apr-22 20:55N 49°44' W 124°55'0 0.0
2017-Apr-22 20:10N 49°44' W 124°55'0 1.7
2017-Apr-22 20:00N 49°45' W 124°55'713.5
2017-Apr-22 19:31N 49°47' W 124°45'714.1
2017-Apr-22 19:01N 49°49' W 124°35'2 4.4
2017-Apr-22 18:30N 49°50' W 124°32'3 5.2
2017-Apr-22 18:00N 49°49' W 124°36'815.5
2017-Apr-22 17:30N 49°46' W 124°47'611.9
2017-Apr-22 17:00N 49°44' W 124°55'0 0.0
2017-Apr-22 16:30N 49°44' W 124°55'5 9.9
2017-Apr-22 16:00N 49°47' W 124°49'713.0
2017-Apr-22 15:30N 49°49' W 124°39'5 9.6
2017-Apr-22 15:00N 49°50' W 124°32'2 3.9
2017-Apr-22 14:30N 49°50' W 124°35'1312.9
2017-Apr-22 13:30N 49°45' W 124°53'1 2.4
2017-Apr-22 12:55N 49°44' W 124°55'0 0.0
2017-Apr-22 12:19N 49°44' W 124°55'0 0.0
2017-Apr-22 11:55N 49°44' W 124°55'0 0.0
2017-Apr-22 11:25N 49°44' W 124°55'0 0.0
2017-Apr-22 10:55N 49°44' W 124°55'0 0.0
2017-Apr-22 10:25N 49°44' W 124°55'0 0.0
2017-Apr-22 09:58N 49°44' W 124°55'0 0.0
2017-Apr-22 09:25N 49°44' W 124°55'0 0.0
2017-Apr-22 08:55N 49°44' W 124°55'0 0.0
2017-Apr-22 08:25N 49°44' W 124°55'0 0.0
2017-Apr-22 07:55N 49°44' W 124°55'0 0.0
2017-Apr-22 07:25N 49°44' W 124°55'0 0.0
2017-Apr-22 06:55N 49°44' W 124°55'0 0.0
2017-Apr-22 06:25N 49°44' W 124°55'0 0.0
2017-Apr-22 05:55N 49°44' W 124°55'0 0.0
2017-Apr-22 05:25N 49°44' W 124°55'0 0.0
2017-Apr-22 04:59N 49°44' W 124°55'511.6
2017-Apr-22 04:31N 49°46' W 124°48'815.4
2017-Apr-22 04:01N 49°49' W 124°36'3 6.1
2017-Apr-22 03:30N 49°50' W 124°32'612.2
2017-Apr-22 03:00N 49°48' W 124°41'815.0
2017-Apr-22 02:30N 49°45' W 124°52'2 2.6
2017-Apr-22 01:34N 49°44' W 124°55'0 0.0
2017-Apr-22 01:30N 49°44' W 124°55'611.2
2017-Apr-22 01:01N 49°46' W 124°47'714.2
2017-Apr-22 00:30N 49°49' W 124°37'4 7.1
2017-Apr-22 00:00N 49°50' W 124°32'2 3.3
2017-Apr-21 23:30N 49°50' W 124°34'713.3
2017-Apr-21 23:00N 49°47' W 124°44'713.5
2017-Apr-21 22:30N 49°45' W 124°54'1 2.4
2017-Apr-21 21:59N 49°44' W 124°55'0 0.0
2017-Apr-21 21:22N 49°44' W 124°55'0 0.0
2017-Apr-21 20:52N 49°44' W 124°55'0 0.0
2017-Apr-21 20:25N 49°44' W 124°55'2 4.5
2017-Apr-21 20:00N 49°45' W 124°53'612.4
2017-Apr-21 19:30N 49°47' W 124°44'612.5
2017-Apr-21 19:00N 49°49' W 124°35'2 4.0
2017-Apr-21 18:30N 49°50' W 124°32'4 7.6
2017-Apr-21 18:00N 49°49' W 124°37'714.2
2017-Apr-21 17:30N 49°46' W 124°48'510.8
2017-Apr-21 17:00N 49°44' W 124°55'0 0.0
2017-Apr-21 16:29N 49°44' W 124°55'511.3
2017-Apr-21 16:00N 49°47' W 124°48'713.6
2017-Apr-21 15:30N 49°49' W 124°38'4 8.2
2017-Apr-21 15:01N 49°50' W 124°32'1 2.9
2017-Apr-21 14:31N 49°50' W 124°34'1414.3
2017-Apr-21 13:31N 49°45' W 124°55'1 0.6
2017-Apr-21 12:32N 49°44' W 124°55'0 0.0
2017-Apr-21 12:29N 49°44' W 124°55'0 0.0
2017-Apr-21 11:53N 49°44' W 124°55'0 0.0
2017-Apr-21 11:29N 49°44' W 124°55'0 0.0
2017-Apr-21 10:56N 49°44' W 124°55'0 0.0
2017-Apr-21 10:26N 49°44' W 124°55'0 0.0
2017-Apr-21 09:56N 49°44' W 124°55'0 0.0
2017-Apr-21 09:29N 49°44' W 124°55'0 0.0
2017-Apr-21 08:59N 49°44' W 124°55'0 0.0
2017-Apr-21 08:29N 49°44' W 124°55'0 0.0
2017-Apr-21 07:47N 49°44' W 124°55'0 0.0
2017-Apr-21 07:29N 49°44' W 124°55'0 0.0
2017-Apr-21 06:59N 49°44' W 124°55'0 0.0
2017-Apr-21 06:26N 49°44' W 124°55'0 0.0
2017-Apr-21 05:59N 49°44' W 124°55'0 0.0
2017-Apr-21 05:29N 49°44' W 124°55'0 0.6
2017-Apr-21 05:00N 49°44' W 124°55'815.1
2017-Apr-21 04:30N 49°47' W 124°44'815.5
2017-Apr-21 04:00N 49°50' W 124°33'1 1.2
2017-Apr-21 03:30N 49°50' W 124°33'815.2
2017-Apr-21 03:00N 49°47' W 124°44'815.1
2017-Apr-21 02:30N 49°45' W 124°55'0 0.9
2017-Apr-21 02:00N 49°44' W 124°55'0 0.1
2017-Apr-21 01:30N 49°44' W 124°55'612.2
2017-Apr-21 01:01N 49°47' W 124°47'713.9
2017-Apr-21 00:30N 49°49' W 124°36'3 6.4
2017-Apr-21 00:00N 49°50' W 124°32'1 2.4
2017-Apr-20 23:30N 49°50' W 124°34'612.8
2017-Apr-20 23:01N 49°48' W 124°43'712.9
2017-Apr-20 22:30N 49°45' W 124°52'2 3.7
2017-Apr-20 21:55N 49°44' W 124°55'0 0.0
2017-Apr-20 20:37N 49°44' W 124°55'0 0.0
2017-Apr-20 20:25N 49°44' W 124°55'2 4.3
2017-Apr-20 20:01N 49°45' W 124°53'612.8
2017-Apr-20 19:31N 49°47' W 124°44'612.8
2017-Apr-20 19:01N 49°49' W 124°34'2 3.3
2017-Apr-20 18:30N 49°50' W 124°32'4 7.8
2017-Apr-20 18:00N 49°49' W 124°38'713.4
2017-Apr-20 17:30N 49°46' W 124°47'611.1
2017-Apr-20 17:01N 49°44' W 124°55'0 0.1
2017-Apr-20 16:31N 49°44' W 124°55'713.1
2017-Apr-20 16:00N 49°47' W 124°46'815.5
2017-Apr-20 15:30N 49°49' W 124°35'2 3.7
2017-Apr-20 15:00N 49°50' W 124°32'10 9.7
2017-Apr-20 14:00N 49°47' W 124°46'612.7
2017-Apr-20 13:30N 49°45' W 124°55'0 0.3
2017-Apr-20 12:46N 49°44' W 124°55'0 0.0
2017-Apr-20 12:28N 49°44' W 124°55'0 0.0
2017-Apr-20 11:37N 49°44' W 124°55'0 0.0
2017-Apr-20 11:19N 49°44' W 124°55'0 0.0
2017-Apr-20 10:55N 49°44' W 124°55'0 0.0
2017-Apr-20 10:19N 49°44' W 124°55'0 0.0
2017-Apr-20 09:55N 49°44' W 124°55'0 0.0
2017-Apr-20 09:19N 49°44' W 124°55'0 0.0
2017-Apr-20 08:55N 49°44' W 124°55'0 0.0
2017-Apr-20 08:25N 49°44' W 124°55'0 0.0
2017-Apr-20 07:49N 49°44' W 124°55'0 0.0
2017-Apr-20 07:25N 49°44' W 124°55'0 0.0
2017-Apr-20 06:55N 49°44' W 124°55'0 0.0
2017-Apr-20 06:25N 49°44' W 124°55'0 0.0
2017-Apr-20 05:55N 49°44' W 124°55'0 0.0
2017-Apr-20 05:25N 49°44' W 124°55'0 0.1
2017-Apr-20 04:59N 49°44' W 124°55'612.5
2017-Apr-20 04:30N 49°47' W 124°47'714.4
2017-Apr-20 04:01N 49°49' W 124°36'3 6.2
2017-Apr-20 03:30N 49°50' W 124°32'2 5.0
2017-Apr-20 03:00N 49°50' W 124°36'714.2
2017-Apr-20 02:30N 49°47' W 124°46'713.2
2017-Apr-20 02:01N 49°45' W 124°55'0 0.3
2017-Apr-20 01:30N 49°44' W 124°55'0 0.0
2017-Apr-20 01:00N 49°44' W 124°55'0 0.0
2017-Apr-20 00:30N 49°44' W 124°55'0 0.0
2017-Apr-19 23:54N 49°44' W 124°55'0 0.0
2017-Apr-19 23:30N 49°44' W 124°55'0 0.0
2017-Apr-19 23:00N 49°44' W 124°55'0 0.0
2017-Apr-19 22:27N 49°44' W 124°55'0 0.0
2017-Apr-19 21:54N 49°44' W 124°55'0 0.0
2017-Apr-19 21:27N 49°44' W 124°55'0 0.0
2017-Apr-19 21:00N 49°44' W 124°55'0 0.0
2017-Apr-19 20:30N 49°44' W 124°55'1 1.1
2017-Apr-19 20:00N 49°45' W 124°55'611.9
2017-Apr-19 19:30N 49°46' W 124°46'815.0
2017-Apr-19 19:00N 49°49' W 124°35'2 4.4
2017-Apr-19 18:30N 49°50' W 124°32'4 8.9
2017-Apr-19 18:00N 49°49' W 124°38'713.1
2017-Apr-19 17:30N 49°45' W 124°47'510.9
2017-Apr-19 17:00N 49°44' W 124°55'0 0.2
2017-Apr-19 16:30N 49°44' W 124°55'611.1
2017-Apr-19 16:00N 49°46' W 124°47'713.7
2017-Apr-19 15:30N 49°49' W 124°37'4 7.7
2017-Apr-19 15:00N 49°50' W 124°32'3 5.7
2017-Apr-19 14:30N 49°50' W 124°36'1312.6
2017-Apr-19 13:30N 49°45' W 124°54'1 1.2
2017-Apr-19 12:53N 49°44' W 124°55'0 0.0
2017-Apr-19 12:29N 49°44' W 124°55'0 0.0
2017-Apr-19 11:59N 49°44' W 124°55'0 0.0
2017-Apr-19 11:29N 49°44' W 124°55'0 0.0
2017-Apr-19 10:59N 49°44' W 124°55'0 0.0
2017-Apr-19 10:26N 49°44' W 124°55'0 0.0
2017-Apr-19 09:59N 49°44' W 124°55'0 0.0
2017-Apr-19 09:29N 49°44' W 124°55'0 0.0
2017-Apr-19 08:59N 49°44' W 124°55'0 0.0
2017-Apr-19 08:29N 49°44' W 124°55'0 0.0
2017-Apr-19 07:59N 49°44' W 124°55'0 0.0
2017-Apr-19 07:29N 49°44' W 124°55'0 0.0
2017-Apr-19 06:56N 49°44' W 124°55'0 0.0
2017-Apr-19 06:26N 49°44' W 124°55'0 0.0
2017-Apr-19 05:59N 49°44' W 124°55'0 0.0
2017-Apr-19 05:29N 49°44' W 124°55'0 0.1
2017-Apr-19 05:00N 49°44' W 124°55'612.7
2017-Apr-19 04:30N 49°47' W 124°46'815.2
2017-Apr-19 04:00N 49°49' W 124°35'2 4.5
2017-Apr-19 03:30N 49°50' W 124°32'612.0
2017-Apr-19 03:01N 49°48' W 124°41'815.3
2017-Apr-19 02:30N 49°46' W 124°52'3 4.9
2017-Apr-19 01:59N 49°44' W 124°55'0 0.0
2017-Apr-19 01:30N 49°44' W 124°55'611.7
2017-Apr-19 01:00N 49°47' W 124°47'714.1
2017-Apr-19 00:30N 49°49' W 124°37'3 6.9
2017-Apr-19 00:00N 49°50' W 124°32'1 2.4
2017-Apr-18 23:31N 49°50' W 124°34'612.7
2017-Apr-18 23:00N 49°48' W 124°43'612.9
2017-Apr-18 22:30N 49°45' W 124°52'2 3.7
2017-Apr-18 21:54N 49°44' W 124°55'0 0.0
2017-Apr-18 21:27N 49°44' W 124°55'0 0.0
2017-Apr-18 21:00N 49°44' W 124°55'0 0.0
2017-Apr-18 20:30N 49°44' W 124°55'2 4.3
2017-Apr-18 20:00N 49°46' W 124°53'612.7
2017-Apr-18 19:30N 49°47' W 124°43'612.8
2017-Apr-18 19:00N 49°49' W 124°34'1 2.8
2017-Apr-18 18:30N 49°50' W 124°32'4 8.4
2017-Apr-18 18:00N 49°49' W 124°38'713.5
2017-Apr-18 17:30N 49°46' W 124°48'510.4
2017-Apr-18 17:00N 49°44' W 124°55'0 0.2
2017-Apr-18 16:30N 49°44' W 124°55'611.8
2017-Apr-18 16:00N 49°46' W 124°47'714.5
2017-Apr-18 15:30N 49°49' W 124°36'3 6.2
2017-Apr-18 15:00N 49°50' W 124°32'9 8.8
2017-Apr-18 14:00N 49°47' W 124°45'612.5
2017-Apr-18 13:29N 49°45' W 124°54'1 1.7
2017-Apr-18 12:59N 49°44' W 124°55'0 0.0
2017-Apr-18 12:28N 49°44' W 124°55'0 0.0
2017-Apr-18 11:58N 49°44' W 124°55'0 0.0
2017-Apr-18 11:28N 49°44' W 124°55'0 0.0
2017-Apr-18 10:58N 49°44' W 124°55'0 0.0
2017-Apr-18 10:16N 49°44' W 124°55'0 0.0
2017-Apr-18 09:58N 49°44' W 124°55'0 0.0
2017-Apr-18 09:28N 49°44' W 124°55'0 0.0
2017-Apr-18 08:58N 49°44' W 124°55'0 0.0
2017-Apr-18 08:22N 49°44' W 124°55'0 0.0
2017-Apr-18 07:58N 49°44' W 124°55'0 0.0
2017-Apr-18 07:28N 49°44' W 124°55'0 0.0
2017-Apr-18 06:58N 49°44' W 124°55'0 0.0
2017-Apr-18 06:28N 49°44' W 124°55'0 0.0
2017-Apr-18 05:58N 49°44' W 124°55'0 0.0
2017-Apr-18 05:10N 49°44' W 124°55'0 0.5
2017-Apr-18 05:00N 49°44' W 124°55'713.9
2017-Apr-18 04:30N 49°47' W 124°45'815.9
2017-Apr-18 04:00N 49°50' W 124°34'1 2.5
2017-Apr-18 03:30N 49°50' W 124°32'612.7
2017-Apr-18 03:00N 49°48' W 124°41'714.8
2017-Apr-18 02:30N 49°45' W 124°52'3 3.1
2017-Apr-18 01:41N 49°44' W 124°55'0 0.0
2017-Apr-18 01:29N 49°44' W 124°55'612.0
2017-Apr-18 01:00N 49°47' W 124°47'714.8
2017-Apr-18 00:31N 49°49' W 124°36'3 6.1
2017-Apr-18 00:00N 49°50' W 124°32'1 2.3
2017-Apr-17 23:30N 49°50' W 124°34'713.1
2017-Apr-17 23:00N 49°48' W 124°43'713.2
2017-Apr-17 22:30N 49°45' W 124°53'2 2.3
2017-Apr-17 21:40N 49°44' W 124°55'0 0.0
2017-Apr-17 21:25N 49°44' W 124°55'0 0.0
2017-Apr-17 20:55N 49°44' W 124°55'0 0.0
2017-Apr-17 20:13N 49°44' W 124°55'0 0.6
2017-Apr-17 20:00N 49°44' W 124°55'714.7
2017-Apr-17 19:30N 49°47' W 124°45'815.3
2017-Apr-17 19:00N 49°50' W 124°33'  
Track history (hours):
 
Tides and Currents Weather Stations Pressure Air Temp Water Temp Dewpoint Dewpoint Depression Visibility Wind Speed Wind Dir Waves Ship Positions

Queen Of Burnaby

Last reported at 2017-Apr-27 18:30 UTC. Time now 2017-Apr-27 18:54 UTC.
Position N 49°50' W 124°32'.

Length 130 m.

MMSI: 316001246.

Date/timePositionNaut miles runAvg speedWind from/ knotsBaromVisibWave heightAir tempDewpointWater temp
2017-Apr-27 18:30N 49°50' W 124°32'3 5.8
2017-Apr-27 18:00N 49°49' W 124°36'714.8
2017-Apr-27 17:30N 49°47' W 124°47'611.8
2017-Apr-27 17:00N 49°44' W 124°55'0 0.1
2017-Apr-27 16:30N 49°44' W 124°55'612.3
2017-Apr-27 16:00N 49°47' W 124°47'714.9
2017-Apr-27 15:31N 49°49' W 124°36'3 5.6
2017-Apr-27 15:00N 49°50' W 124°32'9 8.7
2017-Apr-27 14:00N 49°47' W 124°45'713.8
2017-Apr-27 13:29N 49°45' W 124°55'0 0.6
2017-Apr-27 13:00N 49°44' W 124°55'0 0.0
2017-Apr-27 12:21N 49°44' W 124°55'0 0.0
2017-Apr-27 10:48N 49°44' W 124°55'0 0.0
2017-Apr-27 10:24N 49°44' W 124°55'0 0.0
2017-Apr-27 09:18N 49°44' W 124°55'0 0.0
2017-Apr-27 08:00N 49°44' W 124°55'0 0.0
2017-Apr-27 07:30N 49°44' W 124°55'0 0.0
2017-Apr-27 06:54N 49°44' W 124°55'0 0.0
2017-Apr-27 06:12N 49°44' W 124°55'0 0.0
2017-Apr-27 06:00N 49°44' W 124°55'0 0.0
2017-Apr-27 05:12N 49°44' W 124°55'0 0.0
2017-Apr-27 05:00N 49°44' W 124°55'612.3
2017-Apr-27 04:30N 49°46' W 124°46'714.1
2017-Apr-27 04:00N 49°49' W 124°36'3 6.1
2017-Apr-27 03:30N 49°50' W 124°32'3 6.3
2017-Apr-27 03:00N 49°49' W 124°37'612.6
2017-Apr-27 02:30N 49°47' W 124°46'612.5
2017-Apr-27 02:00N 49°45' W 124°55'1 0.6
2017-Apr-27 01:13N 49°44' W 124°55'0 0.0
2017-Apr-27 00:58N 49°44' W 124°55'0 0.0
2017-Apr-26 23:46N 49°44' W 124°55'0 0.0
2017-Apr-26 23:28N 49°44' W 124°55'0 0.0
2017-Apr-26 22:22N 49°44' W 124°55'0 0.0
2017-Apr-26 21:58N 49°44' W 124°55'0 0.0
2017-Apr-26 20:14N 49°44' W 124°55'1 5.8
2017-Apr-26 20:00N 49°45' W 124°54'612.8
2017-Apr-26 19:30N 49°47' W 124°44'612.9
2017-Apr-26 19:00N 49°49' W 124°35'2 4.2
2017-Apr-26 18:30N 49°50' W 124°32'3 6.6
2017-Apr-26 18:00N 49°49' W 124°37'814.7
2017-Apr-26 17:27N 49°46' W 124°48'510.3
2017-Apr-26 16:59N 49°44' W 124°55'0 0.1
2017-Apr-26 16:30N 49°44' W 124°55'510.7
2017-Apr-26 16:00N 49°46' W 124°48'612.3
2017-Apr-26 15:30N 49°49' W 124°39'5 9.5
2017-Apr-26 15:00N 49°50' W 124°32'2 4.5
2017-Apr-26 14:30N 49°50' W 124°35'1312.9
2017-Apr-26 13:30N 49°45' W 124°54'1 0.6
2017-Apr-26 11:29N 49°44' W 124°55'0 0.0
2017-Apr-26 10:59N 49°44' W 124°55'0 0.0
2017-Apr-26 10:11N 49°44' W 124°55'0 0.0
2017-Apr-26 09:53N 49°44' W 124°55'0 0.0
2017-Apr-26 09:29N 49°44' W 124°55'0 0.0
2017-Apr-26 08:59N 49°44' W 124°55'0 0.0
2017-Apr-26 08:29N 49°44' W 124°55'0 0.0
2017-Apr-26 07:53N 49°44' W 124°55'0 0.0
2017-Apr-26 07:29N 49°44' W 124°55'0 0.0
2017-Apr-26 06:59N 49°44' W 124°55'0 0.0
2017-Apr-26 06:29N 49°44' W 124°55'0 0.0
2017-Apr-26 05:59N 49°44' W 124°55'0 0.0
2017-Apr-26 05:29N 49°44' W 124°55'0 0.0
2017-Apr-26 04:59N 49°44' W 124°55'611.9
2017-Apr-26 04:30N 49°47' W 124°47'714.7
2017-Apr-26 04:00N 49°49' W 124°37'3 6.5
2017-Apr-26 03:31N 49°50' W 124°32'611.6
2017-Apr-26 03:01N 49°48' W 124°40'815.0
2017-Apr-26 02:30N 49°45' W 124°51'3 5.8
2017-Apr-26 02:00N 49°44' W 124°55'0 0.1
2017-Apr-26 01:30N 49°44' W 124°55'611.9
2017-Apr-26 01:00N 49°47' W 124°47'713.8
2017-Apr-26 00:30N 49°49' W 124°37'3 6.7
2017-Apr-26 00:00N 49°50' W 124°32'2 4.0
2017-Apr-25 23:31N 49°50' W 124°35'612.2
2017-Apr-25 23:00N 49°47' W 124°43'612.5
2017-Apr-25 22:29N 49°45' W 124°53'2 3.6
2017-Apr-25 21:57N 49°44' W 124°55'0 0.0
2017-Apr-25 21:30N 49°44' W 124°55'0 0.0
2017-Apr-25 21:00N 49°44' W 124°55'0 0.0
2017-Apr-25 20:30N 49°44' W 124°55'3 5.2
2017-Apr-25 20:00N 49°45' W 124°52'612.2
2017-Apr-25 19:30N 49°48' W 124°43'612.3
2017-Apr-25 19:00N 49°50' W 124°34'1 2.8
2017-Apr-25 18:30N 49°50' W 124°32'4 8.6
2017-Apr-25 18:00N 49°49' W 124°38'713.3
2017-Apr-25 17:29N 49°47' W 124°48'510.4
2017-Apr-25 17:00N 49°44' W 124°55'0 0.1
2017-Apr-25 16:30N 49°44' W 124°55'611.0
2017-Apr-25 16:00N 49°47' W 124°48'713.7
2017-Apr-25 15:30N 49°49' W 124°38'4 7.8
2017-Apr-25 15:00N 49°50' W 124°32'3 5.2
2017-Apr-25 14:30N 49°50' W 124°36'1312.5
2017-Apr-25 13:30N 49°45' W 124°54'1 0.3
2017-Apr-25 09:16N 49°44' W 124°55'0 0.0
2017-Apr-25 08:46N 49°44' W 124°55'0 0.0
2017-Apr-25 05:40N 49°44' W 124°55'0 0.0
2017-Apr-25 05:28N 49°44' W 124°55'0 0.1
2017-Apr-25 04:53N 49°44' W 124°55'513.3
2017-Apr-25 04:31N 49°46' W 124°48'714.9
2017-Apr-25 04:01N 49°49' W 124°37'4 7.3
2017-Apr-25 03:30N 49°50' W 124°32'611.2
2017-Apr-25 03:00N 49°48' W 124°40'814.8
2017-Apr-25 02:29N 49°46' W 124°51'3 6.1
2017-Apr-25 02:00N 49°44' W 124°55'0 0.0
2017-Apr-25 01:30N 49°44' W 124°55'611.3
2017-Apr-25 01:00N 49°46' W 124°47'714.0
2017-Apr-25 00:30N 49°49' W 124°37'4 7.4
2017-Apr-25 00:00N 49°50' W 124°32'2 3.4
2017-Apr-24 23:30N 49°50' W 124°35'713.0
2017-Apr-24 22:59N 49°47' W 124°44'613.2
2017-Apr-24 22:30N 49°45' W 124°53'1 2.1
2017-Apr-24 21:49N 49°44' W 124°55'0 0.0
2017-Apr-24 20:13N 49°44' W 124°55'2 8.5
2017-Apr-24 20:00N 49°45' W 124°53'612.4
2017-Apr-24 19:30N 49°47' W 124°44'612.4
2017-Apr-24 19:00N 49°49' W 124°35'2 4.1
2017-Apr-24 18:30N 49°50' W 124°32'4 7.5
2017-Apr-24 18:00N 49°49' W 124°37'714.2
2017-Apr-24 17:30N 49°46' W 124°48'510.8
2017-Apr-24 17:01N 49°44' W 124°55'0 0.0
2017-Apr-24 16:29N 49°44' W 124°55'511.2
2017-Apr-24 16:00N 49°46' W 124°48'713.7
2017-Apr-24 15:30N 49°49' W 124°38'4 8.3
2017-Apr-24 15:00N 49°50' W 124°32'1 2.5
2017-Apr-24 14:30N 49°50' W 124°34'1413.8
2017-Apr-24 13:30N 49°45' W 124°54'1 2.5
2017-Apr-24 12:58N 49°44' W 124°55'0 0.0
2017-Apr-24 12:22N 49°44' W 124°55'0 0.0
2017-Apr-24 10:25N 49°44' W 124°55'0 0.0
2017-Apr-24 09:49N 49°44' W 124°55'0 0.0
2017-Apr-24 09:19N 49°44' W 124°55'0 0.0
2017-Apr-24 08:58N 49°44' W 124°55'0 0.0
2017-Apr-24 07:10N 49°44' W 124°55'0 0.0
2017-Apr-24 06:55N 49°44' W 124°55'0 0.0
2017-Apr-24 05:19N 49°44' W 124°55'0 0.0
2017-Apr-24 04:57N 49°44' W 124°55'613.3
2017-Apr-24 04:30N 49°47' W 124°47'714.7
2017-Apr-24 04:00N 49°49' W 124°36'3 5.8
2017-Apr-24 03:30N 49°50' W 124°32'612.8
2017-Apr-24 03:00N 49°48' W 124°41'815.0
2017-Apr-24 02:30N 49°45' W 124°52'2 4.7
2017-Apr-24 02:00N 49°44' W 124°55'0 0.0
2017-Apr-24 01:30N 49°44' W 124°55'612.1
2017-Apr-24 01:01N 49°47' W 124°47'714.0
2017-Apr-24 00:30N 49°49' W 124°36'3 6.3
2017-Apr-24 00:00N 49°50' W 124°32'2 4.1
2017-Apr-23 23:31N 49°50' W 124°35'611.8
2017-Apr-23 23:00N 49°48' W 124°43'611.9
2017-Apr-23 22:30N 49°45' W 124°52'2 4.6
2017-Apr-23 21:58N 49°44' W 124°55'0 0.0
2017-Apr-23 21:28N 49°44' W 124°55'0 0.0
2017-Apr-23 20:52N 49°44' W 124°55'0 0.0
2017-Apr-23 20:22N 49°44' W 124°55'1 3.2
2017-Apr-23 20:00N 49°45' W 124°54'713.5
2017-Apr-23 19:31N 49°47' W 124°44'612.5
2017-Apr-23 19:00N 49°49' W 124°35'2 4.2
2017-Apr-23 18:30N 49°50' W 124°32'4 7.9
2017-Apr-23 18:00N 49°49' W 124°38'713.1
2017-Apr-23 17:30N 49°46' W 124°47'611.2
2017-Apr-23 17:00N 49°44' W 124°55'0 0.2
2017-Apr-23 16:30N 49°44' W 124°55'510.4
2017-Apr-23 16:00N 49°47' W 124°48'612.6
2017-Apr-23 15:30N 49°48' W 124°39'5 9.6
2017-Apr-23 15:00N 49°50' W 124°32'9 8.6
2017-Apr-23 14:00N 49°47' W 124°45'612.3
2017-Apr-23 13:30N 49°45' W 124°53'1 2.3
2017-Apr-23 12:54N 49°44' W 124°55'0 0.0
2017-Apr-23 12:30N 49°44' W 124°55'0 0.0
2017-Apr-23 11:57N 49°44' W 124°55'0 0.0
2017-Apr-23 11:30N 49°44' W 124°55'0 0.0
2017-Apr-23 11:00N 49°44' W 124°55'0 0.0
2017-Apr-23 10:30N 49°44' W 124°55'0 0.0
2017-Apr-23 09:48N 49°44' W 124°55'0 0.0
2017-Apr-23 09:30N 49°44' W 124°55'0 0.0
2017-Apr-23 09:00N 49°44' W 124°55'0 0.0
2017-Apr-23 08:30N 49°44' W 124°55'0 0.0
2017-Apr-23 08:00N 49°44' W 124°55'0 0.0
2017-Apr-23 07:30N 49°44' W 124°55'0 0.0
2017-Apr-23 06:54N 49°44' W 124°55'0 0.0
2017-Apr-23 05:48N 49°44' W 124°55'0 0.0
2017-Apr-23 05:09N 49°44' W 124°55'0 0.0
2017-Apr-23 04:55N 49°44' W 124°55'511.4
2017-Apr-23 04:30N 49°46' W 124°49'815.3
2017-Apr-23 04:00N 49°49' W 124°38'4 8.0
2017-Apr-23 03:30N 49°50' W 124°32'3 6.6
2017-Apr-23 03:00N 49°49' W 124°37'611.8
2017-Apr-23 02:31N 49°46' W 124°45'612.5
2017-Apr-23 02:00N 49°45' W 124°54'1 1.0
2017-Apr-23 01:10N 49°44' W 124°55'0 0.0
2017-Apr-23 00:58N 49°44' W 124°55'0 0.0
2017-Apr-23 00:28N 49°44' W 124°55'0 0.0
2017-Apr-22 23:58N 49°44' W 124°55'0 0.0
2017-Apr-22 23:28N 49°44' W 124°55'0 0.0
2017-Apr-22 22:58N 49°44' W 124°55'0 0.0
2017-Apr-22 22:28N 49°44' W 124°55'0 0.0
2017-Apr-22 21:58N 49°44' W 124°55'0 0.0
2017-Apr-22 21:28N 49°44' W 124°55'0 0.0
2017-Apr-22 20:55N 49°44' W 124°55'0 0.0
2017-Apr-22 20:10N 49°44' W 124°55'0 1.7
2017-Apr-22 20:00N 49°45' W 124°55'713.5
2017-Apr-22 19:31N 49°47' W 124°45'714.1
2017-Apr-22 19:01N 49°49' W 124°35'2 4.4
2017-Apr-22 18:30N 49°50' W 124°32'3 5.2
2017-Apr-22 18:00N 49°49' W 124°36'815.5
2017-Apr-22 17:30N 49°46' W 124°47'611.9
2017-Apr-22 17:00N 49°44' W 124°55'0 0.0
2017-Apr-22 16:30N 49°44' W 124°55'5 9.9
2017-Apr-22 16:00N 49°47' W 124°49'713.0
2017-Apr-22 15:30N 49°49' W 124°39'5 9.6
2017-Apr-22 15:00N 49°50' W 124°32'2 3.9
2017-Apr-22 14:30N 49°50' W 124°35'1312.9
2017-Apr-22 13:30N 49°45' W 124°53'1 2.4
2017-Apr-22 12:55N 49°44' W 124°55'0 0.0
2017-Apr-22 12:19N 49°44' W 124°55'0 0.0
2017-Apr-22 11:55N 49°44' W 124°55'0 0.0
2017-Apr-22 11:25N 49°44' W 124°55'0 0.0
2017-Apr-22 10:55N 49°44' W 124°55'0 0.0
2017-Apr-22 10:25N 49°44' W 124°55'0 0.0
2017-Apr-22 09:58N 49°44' W 124°55'0 0.0
2017-Apr-22 09:25N 49°44' W 124°55'0 0.0
2017-Apr-22 08:55N 49°44' W 124°55'0 0.0
2017-Apr-22 08:25N 49°44' W 124°55'0 0.0
2017-Apr-22 07:55N 49°44' W 124°55'0 0.0
2017-Apr-22 07:25N 49°44' W 124°55'0 0.0
2017-Apr-22 06:55N 49°44' W 124°55'0 0.0
2017-Apr-22 06:25N 49°44' W 124°55'0 0.0
2017-Apr-22 05:55N 49°44' W 124°55'0 0.0
2017-Apr-22 05:25N 49°44' W 124°55'0 0.0
2017-Apr-22 04:59N 49°44' W 124°55'511.6
2017-Apr-22 04:31N 49°46' W 124°48'815.4
2017-Apr-22 04:01N 49°49' W 124°36'3 6.1
2017-Apr-22 03:30N 49°50' W 124°32'612.2
2017-Apr-22 03:00N 49°48' W 124°41'815.0
2017-Apr-22 02:30N 49°45' W 124°52'2 2.6
2017-Apr-22 01:34N 49°44' W 124°55'0 0.0
2017-Apr-22 01:30N 49°44' W 124°55'611.2
2017-Apr-22 01:01N 49°46' W 124°47'714.2
2017-Apr-22 00:30N 49°49' W 124°37'4 7.1
2017-Apr-22 00:00N 49°50' W 124°32'2 3.3
2017-Apr-21 23:30N 49°50' W 124°34'713.3
2017-Apr-21 23:00N 49°47' W 124°44'713.5
2017-Apr-21 22:30N 49°45' W 124°54'1 2.4
2017-Apr-21 21:59N 49°44' W 124°55'0 0.0
2017-Apr-21 21:22N 49°44' W 124°55'0 0.0
2017-Apr-21 20:52N 49°44' W 124°55'0 0.0
2017-Apr-21 20:25N 49°44' W 124°55'2 4.5
2017-Apr-21 20:00N 49°45' W 124°53'612.4
2017-Apr-21 19:30N 49°47' W 124°44'612.5
2017-Apr-21 19:00N 49°49' W 124°35'2 4.0
2017-Apr-21 18:30N 49°50' W 124°32'4 7.6
2017-Apr-21 18:00N 49°49' W 124°37'714.2
2017-Apr-21 17:30N 49°46' W 124°48'510.8
2017-Apr-21 17:00N 49°44' W 124°55'0 0.0
2017-Apr-21 16:29N 49°44' W 124°55'511.3
2017-Apr-21 16:00N 49°47' W 124°48'713.6
2017-Apr-21 15:30N 49°49' W 124°38'4 8.2
2017-Apr-21 15:01N 49°50' W 124°32'1 2.9
2017-Apr-21 14:31N 49°50' W 124°34'1414.3
2017-Apr-21 13:31N 49°45' W 124°55'1 0.6
2017-Apr-21 12:32N 49°44' W 124°55'0 0.0
2017-Apr-21 12:29N 49°44' W 124°55'0 0.0
2017-Apr-21 11:53N 49°44' W 124°55'0 0.0
2017-Apr-21 11:29N 49°44' W 124°55'0 0.0
2017-Apr-21 10:56N 49°44' W 124°55'0 0.0
2017-Apr-21 10:26N 49°44' W 124°55'0 0.0
2017-Apr-21 09:56N 49°44' W 124°55'0 0.0
2017-Apr-21 09:29N 49°44' W 124°55'0 0.0
2017-Apr-21 08:59N 49°44' W 124°55'0 0.0
2017-Apr-21 08:29N 49°44' W 124°55'0 0.0
2017-Apr-21 07:47N 49°44' W 124°55'0 0.0
2017-Apr-21 07:29N 49°44' W 124°55'0 0.0
2017-Apr-21 06:59N 49°44' W 124°55'0 0.0
2017-Apr-21 06:26N 49°44' W 124°55'0 0.0
2017-Apr-21 05:59N 49°44' W 124°55'0 0.0
2017-Apr-21 05:29N 49°44' W 124°55'0 0.6
2017-Apr-21 05:00N 49°44' W 124°55'815.1
2017-Apr-21 04:30N 49°47' W 124°44'815.5
2017-Apr-21 04:00N 49°50' W 124°33'1 1.2
2017-Apr-21 03:30N 49°50' W 124°33'815.2
2017-Apr-21 03:00N 49°47' W 124°44'815.1
2017-Apr-21 02:30N 49°45' W 124°55'0 0.9
2017-Apr-21 02:00N 49°44' W 124°55'0 0.1
2017-Apr-21 01:30N 49°44' W 124°55'612.2
2017-Apr-21 01:01N 49°47' W 124°47'713.9
2017-Apr-21 00:30N 49°49' W 124°36'3 6.4
2017-Apr-21 00:00N 49°50' W 124°32'1 2.4
2017-Apr-20 23:30N 49°50' W 124°34'612.8
2017-Apr-20 23:01N 49°48' W 124°43'712.9
2017-Apr-20 22:30N 49°45' W 124°52'2 3.7
2017-Apr-20 21:55N 49°44' W 124°55'0 0.0
2017-Apr-20 20:37N 49°44' W 124°55'0 0.0
2017-Apr-20 20:25N 49°44' W 124°55'2 4.3
2017-Apr-20 20:01N 49°45' W 124°53'612.8
2017-Apr-20 19:31N 49°47' W 124°44'612.8
2017-Apr-20 19:01N 49°49' W 124°34'2 3.3
2017-Apr-20 18:30N 49°50' W 124°32'4 7.8
2017-Apr-20 18:00N 49°49' W 124°38'713.4
2017-Apr-20 17:30N 49°46' W 124°47'611.1
2017-Apr-20 17:01N 49°44' W 124°55'0 0.1
2017-Apr-20 16:31N 49°44' W 124°55'713.1
2017-Apr-20 16:00N 49°47' W 124°46'815.5
2017-Apr-20 15:30N 49°49' W 124°35'2 3.7
2017-Apr-20 15:00N 49°50' W 124°32'10 9.7
2017-Apr-20 14:00N 49°47' W 124°46'612.7
2017-Apr-20 13:30N 49°45' W 124°55'0 0.3
2017-Apr-20 12:46N 49°44' W 124°55'0 0.0
2017-Apr-20 12:28N 49°44' W 124°55'0 0.0
2017-Apr-20 11:37N 49°44' W 124°55'0 0.0
2017-Apr-20 11:19N 49°44' W 124°55'0 0.0
2017-Apr-20 10:55N 49°44' W 124°55'0 0.0
2017-Apr-20 10:19N 49°44' W 124°55'0 0.0
2017-Apr-20 09:55N 49°44' W 124°55'0 0.0
2017-Apr-20 09:19N 49°44' W 124°55'0 0.0
2017-Apr-20 08:55N 49°44' W 124°55'0 0.0
2017-Apr-20 08:25N 49°44' W 124°55'0 0.0
2017-Apr-20 07:49N 49°44' W 124°55'0 0.0
2017-Apr-20 07:25N 49°44' W 124°55'0 0.0
2017-Apr-20 06:55N 49°44' W 124°55'0 0.0
2017-Apr-20 06:25N 49°44' W 124°55'0 0.0
2017-Apr-20 05:55N 49°44' W 124°55'0 0.0
2017-Apr-20 05:25N 49°44' W 124°55'0 0.1
2017-Apr-20 04:59N 49°44' W 124°55'612.5
2017-Apr-20 04:30N 49°47' W 124°47'714.4
2017-Apr-20 04:01N 49°49' W 124°36'3 6.2
2017-Apr-20 03:30N 49°50' W 124°32'2 5.0
2017-Apr-20 03:00N 49°50' W 124°36'714.2
2017-Apr-20 02:30N 49°47' W 124°46'713.2
2017-Apr-20 02:01N 49°45' W 124°55'0 0.3
2017-Apr-20 01:30N 49°44' W 124°55'0 0.0
2017-Apr-20 01:00N 49°44' W 124°55'0 0.0
2017-Apr-20 00:30N 49°44' W 124°55'0 0.0
2017-Apr-19 23:54N 49°44' W 124°55'0 0.0
2017-Apr-19 23:30N 49°44' W 124°55'0 0.0
2017-Apr-19 23:00N 49°44' W 124°55'0 0.0
2017-Apr-19 22:27N 49°44' W 124°55'0 0.0
2017-Apr-19 21:54N 49°44' W 124°55'0 0.0
2017-Apr-19 21:27N 49°44' W 124°55'0 0.0
2017-Apr-19 21:00N 49°44' W 124°55'0 0.0
2017-Apr-19 20:30N 49°44' W 124°55'1 1.1
2017-Apr-19 20:00N 49°45' W 124°55'611.9
2017-Apr-19 19:30N 49°46' W 124°46'815.0
2017-Apr-19 19:00N 49°49' W 124°35'2 4.4
2017-Apr-19 18:30N 49°50' W 124°32'4 8.9
2017-Apr-19 18:00N 49°49' W 124°38'713.1
2017-Apr-19 17:30N 49°45' W 124°47'510.9
2017-Apr-19 17:00N 49°44' W 124°55'0 0.2
2017-Apr-19 16:30N 49°44' W 124°55'611.1
2017-Apr-19 16:00N 49°46' W 124°47'713.7
2017-Apr-19 15:30N 49°49' W 124°37'4 7.7
2017-Apr-19 15:00N 49°50' W 124°32'3 5.7
2017-Apr-19 14:30N 49°50' W 124°36'1312.6
2017-Apr-19 13:30N 49°45' W 124°54'1 1.2
2017-Apr-19 12:53N 49°44' W 124°55'0 0.0
2017-Apr-19 12:29N 49°44' W 124°55'0 0.0
2017-Apr-19 11:59N 49°44' W 124°55'0 0.0
2017-Apr-19 11:29N 49°44' W 124°55'0 0.0
2017-Apr-19 10:59N 49°44' W 124°55'0 0.0
2017-Apr-19 10:26N 49°44' W 124°55'0 0.0
2017-Apr-19 09:59N 49°44' W 124°55'0 0.0
2017-Apr-19 09:29N 49°44' W 124°55'0 0.0
2017-Apr-19 08:59N 49°44' W 124°55'0 0.0
2017-Apr-19 08:29N 49°44' W 124°55'0 0.0
2017-Apr-19 07:59N 49°44' W 124°55'0 0.0
2017-Apr-19 07:29N 49°44' W 124°55'0 0.0
2017-Apr-19 06:56N 49°44' W 124°55'0 0.0
2017-Apr-19 06:26N 49°44' W 124°55'0 0.0
2017-Apr-19 05:59N 49°44' W 124°55'0 0.0
2017-Apr-19 05:29N 49°44' W 124°55'0 0.1
2017-Apr-19 05:00N 49°44' W 124°55'612.7
2017-Apr-19 04:30N 49°47' W 124°46'815.2
2017-Apr-19 04:00N 49°49' W 124°35'2 4.5
2017-Apr-19 03:30N 49°50' W 124°32'612.0
2017-Apr-19 03:01N 49°48' W 124°41'815.3
2017-Apr-19 02:30N 49°46' W 124°52'3 4.9
2017-Apr-19 01:59N 49°44' W 124°55'0 0.0
2017-Apr-19 01:30N 49°44' W 124°55'611.7
2017-Apr-19 01:00N 49°47' W 124°47'714.1
2017-Apr-19 00:30N 49°49' W 124°37'3 6.9
2017-Apr-19 00:00N 49°50' W 124°32'1 2.4
2017-Apr-18 23:31N 49°50' W 124°34'612.7
2017-Apr-18 23:00N 49°48' W 124°43'612.9
2017-Apr-18 22:30N 49°45' W 124°52'2 3.7
2017-Apr-18 21:54N 49°44' W 124°55'0 0.0
2017-Apr-18 21:27N 49°44' W 124°55'0 0.0
2017-Apr-18 21:00N 49°44' W 124°55'0 0.0
2017-Apr-18 20:30N 49°44' W 124°55'2 4.3
2017-Apr-18 20:00N 49°46' W 124°53'612.7
2017-Apr-18 19:30N 49°47' W 124°43'612.8
2017-Apr-18 19:00N 49°49' W 124°34'1 2.8
2017-Apr-18 18:30N 49°50' W 124°32'4 8.4
2017-Apr-18 18:00N 49°49' W 124°38'713.5
2017-Apr-18 17:30N 49°46' W 124°48'510.4
2017-Apr-18 17:00N 49°44' W 124°55'0 0.2
2017-Apr-18 16:30N 49°44' W 124°55'611.8
2017-Apr-18 16:00N 49°46' W 124°47'714.5
2017-Apr-18 15:30N 49°49' W 124°36'3 6.2
2017-Apr-18 15:00N 49°50' W 124°32'9 8.8
2017-Apr-18 14:00N 49°47' W 124°45'612.5
2017-Apr-18 13:29N 49°45' W 124°54'1 1.7
2017-Apr-18 12:59N 49°44' W 124°55'0 0.0
2017-Apr-18 12:28N 49°44' W 124°55'0 0.0
2017-Apr-18 11:58N 49°44' W 124°55'0 0.0
2017-Apr-18 11:28N 49°44' W 124°55'0 0.0
2017-Apr-18 10:58N 49°44' W 124°55'0 0.0
2017-Apr-18 10:16N 49°44' W 124°55'0 0.0
2017-Apr-18 09:58N 49°44' W 124°55'0 0.0
2017-Apr-18 09:28N 49°44' W 124°55'0 0.0
2017-Apr-18 08:58N 49°44' W 124°55'0 0.0
2017-Apr-18 08:22N 49°44' W 124°55'0 0.0
2017-Apr-18 07:58N 49°44' W 124°55'0 0.0
2017-Apr-18 07:28N 49°44' W 124°55'0 0.0
2017-Apr-18 06:58N 49°44' W 124°55'0 0.0
2017-Apr-18 06:28N 49°44' W 124°55'0 0.0
2017-Apr-18 05:58N 49°44' W 124°55'0 0.0
2017-Apr-18 05:10N 49°44' W 124°55'0 0.5
2017-Apr-18 05:00N 49°44' W 124°55'713.9
2017-Apr-18 04:30N 49°47' W 124°45'815.9
2017-Apr-18 04:00N 49°50' W 124°34'1 2.5
2017-Apr-18 03:30N 49°50' W 124°32'612.7
2017-Apr-18 03:00N 49°48' W 124°41'714.8
2017-Apr-18 02:30N 49°45' W 124°52'3 3.1
2017-Apr-18 01:41N 49°44' W 124°55'0 0.0
2017-Apr-18 01:29N 49°44' W 124°55'612.0
2017-Apr-18 01:00N 49°47' W 124°47'714.8
2017-Apr-18 00:31N 49°49' W 124°36'3 6.1
2017-Apr-18 00:00N 49°50' W 124°32'1 2.3
2017-Apr-17 23:30N 49°50' W 124°34'713.1
2017-Apr-17 23:00N 49°48' W 124°43'713.2
2017-Apr-17 22:30N 49°45' W 124°53'2 2.3
2017-Apr-17 21:40N 49°44' W 124°55'0 0.0
2017-Apr-17 21:25N 49°44' W 124°55'0 0.0
2017-Apr-17 20:55N 49°44' W 124°55'0 0.0
2017-Apr-17 20:13N 49°44' W 124°55'0 0.6
2017-Apr-17 20:00N 49°44' W 124°55'714.7
2017-Apr-17 19:30N 49°47' W 124°45'815.3
2017-Apr-17 19:00N 49°50' W 124°33'  

Dump ship's entire track history